sensor_id;sensor_type;location;lat;lon;timestamp;temperature;humidity
21918;DHT22;11123;49.882;8.662;2022-10-30T00:01:49;15.00;99.90
21918;DHT22;11123;49.882;8.662;2022-10-30T00:04:19;15.00;99.90
21918;DHT22;11123;49.882;8.662;2022-10-30T00:06:48;15.00;99.90
21918;DHT22;11123;49.882;8.662;2022-10-30T00:09:20;14.90;99.90
21918;DHT22;11123;49.882;8.662;2022-10-30T00:11:48;14.90;99.90
21918;DHT22;11123;49.882;8.662;2022-10-30T00:14:17;14.80;99.90
21918;DHT22;11123;49.882;8.662;2022-10-30T00:16:45;14.80;99.90
21918;DHT22;11123;49.882;8.662;2022-10-30T00:19:14;14.70;99.90
21918;DHT22;11123;49.882;8.662;2022-10-30T00:21:43;14.70;99.90
21918;DHT22;11123;49.882;8.662;2022-10-30T00:24:11;14.60;99.90
21918;DHT22;11123;49.882;8.662;2022-10-30T00:26:40;14.60;99.90
21918;DHT22;11123;49.882;8.662;2022-10-30T00:29:08;14.60;99.90
21918;DHT22;11123;49.882;8.662;2022-10-30T00:31:36;14.60;99.90
21918;DHT22;11123;49.882;8.662;2022-10-30T00:34:05;14.50;99.90
21918;DHT22;11123;49.882;8.662;2022-10-30T00:36:35;14.60;99.90
21918;DHT22;11123;49.882;8.662;2022-10-30T00:39:05;14.50;99.90
21918;DHT22;11123;49.882;8.662;2022-10-30T00:41:33;14.50;99.90
21918;DHT22;11123;49.882;8.662;2022-10-30T00:44:35;14.50;99.90
21918;DHT22;11123;49.882;8.662;2022-10-30T00:47:09;14.50;99.90
21918;DHT22;11123;49.882;8.662;2022-10-30T00:49:52;14.50;99.90
21918;DHT22;11123;49.882;8.662;2022-10-30T00:52:25;14.50;99.90
21918;DHT22;11123;49.882;8.662;2022-10-30T00:54:56;14.50;99.90
21918;DHT22;11123;49.882;8.662;2022-10-30T00:57:26;14.40;99.90
21918;DHT22;11123;49.882;8.662;2022-10-30T00:59:55;14.50;99.90
21918;DHT22;11123;49.882;8.662;2022-10-30T01:02:26;14.50;99.90
21918;DHT22;11123;49.882;8.662;2022-10-30T01:04:55;14.50;99.90
21918;DHT22;11123;49.882;8.662;2022-10-30T01:07:24;14.50;99.90
21918;DHT22;11123;49.882;8.662;2022-10-30T01:10:03;14.40;99.90
21918;DHT22;11123;49.882;8.662;2022-10-30T01:12:31;14.40;99.90
21918;DHT22;11123;49.882;8.662;2022-10-30T01:15:00;14.40;99.90
21918;DHT22;11123;49.882;8.662;2022-10-30T01:23:33;14.40;99.90
21918;DHT22;11123;49.882;8.662;2022-10-30T01:26:14;14.40;99.90
21918;DHT22;11123;49.882;8.662;2022-10-30T01:28:58;14.30;99.90
21918;DHT22;11123;49.882;8.662;2022-10-30T01:31:40;14.30;99.90
21918;DHT22;11123;49.882;8.662;2022-10-30T01:34:17;14.30;99.90
21918;DHT22;11123;49.882;8.662;2022-10-30T01:36:56;14.20;99.90
21918;DHT22;11123;49.882;8.662;2022-10-30T01:39:33;14.20;99.90
21918;DHT22;11123;49.882;8.662;2022-10-30T01:42:10;14.20;99.90
21918;DHT22;11123;49.882;8.662;2022-10-30T01:44:40;14.20;99.90
21918;DHT22;11123;49.882;8.662;2022-10-30T01:47:31;14.10;99.90
21918;DHT22;11123;49.882;8.662;2022-10-30T01:50:15;14.00;99.90
21918;DHT22;11123;49.882;8.662;2022-10-30T01:52:52;14.00;99.90
21918;DHT22;11123;49.882;8.662;2022-10-30T01:55:29;13.90;99.90
21918;DHT22;11123;49.882;8.662;2022-10-30T01:58:14;13.90;99.90
21918;DHT22;11123;49.882;8.662;2022-10-30T02:00:47;13.80;99.90
21918;DHT22;11123;49.882;8.662;2022-10-30T02:03:18;13.80;99.90
21918;DHT22;11123;49.882;8.662;2022-10-30T02:05:48;13.80;99.90
21918;DHT22;11123;49.882;8.662;2022-10-30T02:08:18;13.80;99.90
21918;DHT22;11123;49.882;8.662;2022-10-30T02:10:48;13.80;99.90
21918;DHT22;11123;49.882;8.662;2022-10-30T02:13:31;13.80;99.90
21918;DHT22;11123;49.882;8.662;2022-10-30T02:15:59;13.80;99.90
21918;DHT22;11123;49.882;8.662;2022-10-30T02:18:28;13.80;99.90
21918;DHT22;11123;49.882;8.662;2022-10-30T02:21:00;13.80;99.90
21918;DHT22;11123;49.882;8.662;2022-10-30T02:23:28;13.90;99.90
21918;DHT22;11123;49.882;8.662;2022-10-30T02:26:07;13.80;99.90
21918;DHT22;11123;49.882;8.662;2022-10-30T02:28:35;13.90;99.90
21918;DHT22;11123;49.882;8.662;2022-10-30T02:31:04;13.90;99.90
21918;DHT22;11123;49.882;8.662;2022-10-30T02:33:32;13.90;99.90
21918;DHT22;11123;49.882;8.662;2022-10-30T02:36:04;13.90;99.90
21918;DHT22;11123;49.882;8.662;2022-10-30T02:38:33;13.90;99.90
21918;DHT22;11123;49.882;8.662;2022-10-30T02:41:02;13.90;99.90
21918;DHT22;11123;49.882;8.662;2022-10-30T02:43:30;13.90;99.90
21918;DHT22;11123;49.882;8.662;2022-10-30T02:46:05;13.90;99.90
21918;DHT22;11123;49.882;8.662;2022-10-30T02:48:36;13.90;99.90
21918;DHT22;11123;49.882;8.662;2022-10-30T02:51:09;13.90;99.90
21918;DHT22;11123;49.882;8.662;2022-10-30T02:53:40;13.80;99.90
21918;DHT22;11123;49.882;8.662;2022-10-30T02:56:11;13.80;99.90
21918;DHT22;11123;49.882;8.662;2022-10-30T02:58:41;13.90;99.90
21918;DHT22;11123;49.882;8.662;2022-10-30T03:01:11;13.90;99.90
21918;DHT22;11123;49.882;8.662;2022-10-30T03:03:41;13.90;99.90
21918;DHT22;11123;49.882;8.662;2022-10-30T03:06:12;13.90;99.90
21918;DHT22;11123;49.882;8.662;2022-10-30T03:08:41;13.90;99.90
21918;DHT22;11123;49.882;8.662;2022-10-30T03:11:12;13.90;99.90
21918;DHT22;11123;49.882;8.662;2022-10-30T03:13:42;14.00;99.90
21918;DHT22;11123;49.882;8.662;2022-10-30T03:16:12;14.00;99.90
21918;DHT22;11123;49.882;8.662;2022-10-30T03:18:41;14.00;99.90
21918;DHT22;11123;49.882;8.662;2022-10-30T03:21:14;14.00;99.90
21918;DHT22;11123;49.882;8.662;2022-10-30T03:23:44;14.00;99.90
21918;DHT22;11123;49.882;8.662;2022-10-30T03:26:12;14.00;99.90
21918;DHT22;11123;49.882;8.662;2022-10-30T03:28:48;14.00;99.90
21918;DHT22;11123;49.882;8.662;2022-10-30T03:31:18;14.00;99.90
21918;DHT22;11123;49.882;8.662;2022-10-30T03:33:56;13.90;99.90
21918;DHT22;11123;49.882;8.662;2022-10-30T03:36:27;13.90;99.90
21918;DHT22;11123;49.882;8.662;2022-10-30T03:38:56;13.80;99.90
21918;DHT22;11123;49.882;8.662;2022-10-30T03:41:25;13.90;99.90
21918;DHT22;11123;49.882;8.662;2022-10-30T03:43:53;13.90;99.90
21918;DHT22;11123;49.882;8.662;2022-10-30T03:46:28;13.90;99.90
21918;DHT22;11123;49.882;8.662;2022-10-30T03:49:11;13.90;99.90
21918;DHT22;11123;49.882;8.662;2022-10-30T03:51:41;14.00;99.90
21918;DHT22;11123;49.882;8.662;2022-10-30T03:54:09;14.10;99.90
21918;DHT22;11123;49.882;8.662;2022-10-30T03:56:38;14.00;99.90
21918;DHT22;11123;49.882;8.662;2022-10-30T03:59:09;14.00;99.90
21918;DHT22;11123;49.882;8.662;2022-10-30T04:01:39;14.00;99.90
21918;DHT22;11123;49.882;8.662;2022-10-30T04:04:08;14.00;99.90
21918;DHT22;11123;49.882;8.662;2022-10-30T04:06:36;13.90;99.90
21918;DHT22;11123;49.882;8.662;2022-10-30T04:09:08;13.90;99.90
21918;DHT22;11123;49.882;8.662;2022-10-30T04:11:40;13.80;99.90
21918;DHT22;11123;49.882;8.662;2022-10-30T04:14:25;13.80;99.90
21918;DHT22;11123;49.882;8.662;2022-10-30T04:17:47;13.80;99.90
21918;DHT22;11123;49.882;8.662;2022-10-30T04:20:17;13.80;99.90
21918;DHT22;11123;49.882;8.662;2022-10-30T04:22:46;13.80;99.90
21918;DHT22;11123;49.882;8.662;2022-10-30T04:25:22;13.80;99.90
21918;DHT22;11123;49.882;8.662;2022-10-30T04:27:51;13.80;99.90
21918;DHT22;11123;49.882;8.662;2022-10-30T04:30:20;13.80;99.90
21918;DHT22;11123;49.882;8.662;2022-10-30T04:32:52;13.80;99.90
21918;DHT22;11123;49.882;8.662;2022-10-30T04:35:24;13.80;99.90
21918;DHT22;11123;49.882;8.662;2022-10-30T04:37:53;13.80;99.90
21918;DHT22;11123;49.882;8.662;2022-10-30T04:40:25;13.80;99.90
21918;DHT22;11123;49.882;8.662;2022-10-30T04:42:58;13.80;99.90
21918;DHT22;11123;49.882;8.662;2022-10-30T04:45:27;13.80;99.90
21918;DHT22;11123;49.882;8.662;2022-10-30T04:47:59;13.70;99.90
21918;DHT22;11123;49.882;8.662;2022-10-30T04:50:30;13.70;99.90
21918;DHT22;11123;49.882;8.662;2022-10-30T04:53:00;13.60;99.90
21918;DHT22;11123;49.882;8.662;2022-10-30T04:55:31;13.60;99.90
21918;DHT22;11123;49.882;8.662;2022-10-30T04:58:00;13.60;99.90
21918;DHT22;11123;49.882;8.662;2022-10-30T05:00:32;13.60;99.90
21918;DHT22;11123;49.882;8.662;2022-10-30T05:03:16;13.60;99.90
21918;DHT22;11123;49.882;8.662;2022-10-30T05:05:46;13.60;99.90
21918;DHT22;11123;49.882;8.662;2022-10-30T05:08:15;13.60;99.90
21918;DHT22;11123;49.882;8.662;2022-10-30T05:10:45;13.60;99.90
21918;DHT22;11123;49.882;8.662;2022-10-30T05:13:14;13.50;99.90
21918;DHT22;11123;49.882;8.662;2022-10-30T05:15:42;13.50;99.90
21918;DHT22;11123;49.882;8.662;2022-10-30T05:18:11;13.50;99.90
21918;DHT22;11123;49.882;8.662;2022-10-30T05:20:42;13.40;99.90
21918;DHT22;11123;49.882;8.662;2022-10-30T05:23:10;13.40;99.90
21918;DHT22;11123;49.882;8.662;2022-10-30T05:25:39;13.40;99.90
21918;DHT22;11123;49.882;8.662;2022-10-30T05:28:11;13.30;99.90
21918;DHT22;11123;49.882;8.662;2022-10-30T05:30:45;13.30;99.90
21918;DHT22;11123;49.882;8.662;2022-10-30T05:33:32;13.30;99.90
21918;DHT22;11123;49.882;8.662;2022-10-30T05:36:01;13.30;99.90
21918;DHT22;11123;49.882;8.662;2022-10-30T05:38:29;13.30;99.90
21918;DHT22;11123;49.882;8.662;2022-10-30T05:40:58;13.20;99.90
21918;DHT22;11123;49.882;8.662;2022-10-30T05:43:27;13.20;99.90
21918;DHT22;11123;49.882;8.662;2022-10-30T05:45:56;13.20;99.90
21918;DHT22;11123;49.882;8.662;2022-10-30T05:48:25;13.20;99.90
21918;DHT22;11123;49.882;8.662;2022-10-30T05:50:54;13.20;99.90
21918;DHT22;11123;49.882;8.662;2022-10-30T05:53:28;13.10;99.90
21918;DHT22;11123;49.882;8.662;2022-10-30T05:55:58;13.10;99.90
21918;DHT22;11123;49.882;8.662;2022-10-30T05:58:32;13.10;99.90
21918;DHT22;11123;49.882;8.662;2022-10-30T06:01:04;13.10;99.90
21918;DHT22;11123;49.882;8.662;2022-10-30T06:03:40;13.10;99.90
21918;DHT22;11123;49.882;8.662;2022-10-30T06:06:11;13.00;99.90
21918;DHT22;11123;49.882;8.662;2022-10-30T06:08:39;13.00;99.90
21918;DHT22;11123;49.882;8.662;2022-10-30T06:11:28;13.00;99.90
21918;DHT22;11123;49.882;8.662;2022-10-30T06:14:00;12.90;99.90
21918;DHT22;11123;49.882;8.662;2022-10-30T06:16:49;12.90;99.90
21918;DHT22;11123;49.882;8.662;2022-10-30T06:19:32;12.90;99.90
21918;DHT22;11123;49.882;8.662;2022-10-30T06:22:34;12.90;99.90
21918;DHT22;11123;49.882;8.662;2022-10-30T06:25:11;12.80;99.90
21918;DHT22;11123;49.882;8.662;2022-10-30T06:27:59;12.80;99.90
21918;DHT22;11123;49.882;8.662;2022-10-30T06:30:31;12.80;99.90
21918;DHT22;11123;49.882;8.662;2022-10-30T06:33:01;12.80;99.90
21918;DHT22;11123;49.882;8.662;2022-10-30T06:35:32;12.90;99.90
21918;DHT22;11123;49.882;8.662;2022-10-30T06:38:00;12.80;99.90
21918;DHT22;11123;49.882;8.662;2022-10-30T06:40:32;12.80;99.90
21918;DHT22;11123;49.882;8.662;2022-10-30T06:43:00;12.80;99.90
21918;DHT22;11123;49.882;8.662;2022-10-30T06:45:40;12.80;99.90
21918;DHT22;11123;49.882;8.662;2022-10-30T06:48:09;12.70;99.90
21918;DHT22;11123;49.882;8.662;2022-10-30T06:50:41;12.70;99.90
21918;DHT22;11123;49.882;8.662;2022-10-30T06:53:10;12.70;99.90
21918;DHT22;11123;49.882;8.662;2022-10-30T06:55:38;12.70;99.90
21918;DHT22;11123;49.882;8.662;2022-10-30T06:58:40;12.70;99.90
21918;DHT22;11123;49.882;8.662;2022-10-30T07:01:33;12.70;99.90
21918;DHT22;11123;49.882;8.662;2022-10-30T07:04:13;12.80;99.90
21918;DHT22;11123;49.882;8.662;2022-10-30T07:06:43;12.80;99.90
21918;DHT22;11123;49.882;8.662;2022-10-30T07:09:11;12.80;99.90
21918;DHT22;11123;49.882;8.662;2022-10-30T07:11:40;12.90;99.90
21918;DHT22;11123;49.882;8.662;2022-10-30T07:14:18;12.90;99.90
21918;DHT22;11123;49.882;8.662;2022-10-30T07:17:11;12.90;99.90
21918;DHT22;11123;49.882;8.662;2022-10-30T07:19:42;13.00;99.90
21918;DHT22;11123;49.882;8.662;2022-10-30T07:22:28;13.00;99.90
21918;DHT22;11123;49.882;8.662;2022-10-30T07:24:57;13.10;99.90
21918;DHT22;11123;49.882;8.662;2022-10-30T07:27:42;13.10;99.90
21918;DHT22;11123;49.882;8.662;2022-10-30T07:30:34;13.20;99.90
21918;DHT22;11123;49.882;8.662;2022-10-30T07:33:27;13.30;99.90
21918;DHT22;11123;49.882;8.662;2022-10-30T07:35:59;13.40;99.90
21918;DHT22;11123;49.882;8.662;2022-10-30T07:38:50;13.40;99.90
21918;DHT22;11123;49.882;8.662;2022-10-30T07:41:28;13.50;99.90
21918;DHT22;11123;49.882;8.662;2022-10-30T07:44:31;13.50;99.90
21918;DHT22;11123;49.882;8.662;2022-10-30T07:47:19;13.60;99.90
21918;DHT22;11123;49.882;8.662;2022-10-30T07:49:58;13.70;99.90
21918;DHT22;11123;49.882;8.662;2022-10-30T07:52:30;13.70;99.90
21918;DHT22;11123;49.882;8.662;2022-10-30T07:55:00;13.80;99.90
21918;DHT22;11123;49.882;8.662;2022-10-30T07:57:43;13.90;99.90
21918;DHT22;11123;49.882;8.662;2022-10-30T08:00:30;13.90;99.90
21918;DHT22;11123;49.882;8.662;2022-10-30T08:03:08;14.00;99.90
21918;DHT22;11123;49.882;8.662;2022-10-30T08:05:58;14.00;99.90
21918;DHT22;11123;49.882;8.662;2022-10-30T08:08:32;14.10;99.90
21918;DHT22;11123;49.882;8.662;2022-10-30T08:11:22;14.20;99.90
21918;DHT22;11123;49.882;8.662;2022-10-30T08:13:52;14.20;99.90
21918;DHT22;11123;49.882;8.662;2022-10-30T08:16:22;14.30;99.90
21918;DHT22;11123;49.882;8.662;2022-10-30T08:18:50;14.50;99.90
21918;DHT22;11123;49.882;8.662;2022-10-30T08:21:24;14.60;99.90
21918;DHT22;11123;49.882;8.662;2022-10-30T08:23:57;14.70;99.90
21918;DHT22;11123;49.882;8.662;2022-10-30T08:26:29;14.80;99.90
21918;DHT22;11123;49.882;8.662;2022-10-30T08:28:57;14.90;99.90
21918;DHT22;11123;49.882;8.662;2022-10-30T08:31:28;14.90;99.90
21918;DHT22;11123;49.882;8.662;2022-10-30T08:34:02;15.00;99.90
21918;DHT22;11123;49.882;8.662;2022-10-30T08:36:38;15.10;99.90
21918;DHT22;11123;49.882;8.662;2022-10-30T08:39:11;15.20;99.90
21918;DHT22;11123;49.882;8.662;2022-10-30T08:42:05;15.30;99.90
21918;DHT22;11123;49.882;8.662;2022-10-30T08:44:39;15.40;99.90
21918;DHT22;11123;49.882;8.662;2022-10-30T08:47:28;15.40;99.90
21918;DHT22;11123;49.882;8.662;2022-10-30T08:49:57;15.50;99.90
21918;DHT22;11123;49.882;8.662;2022-10-30T08:52:29;15.50;99.90
21918;DHT22;11123;49.882;8.662;2022-10-30T08:54:58;15.60;99.90
21918;DHT22;11123;49.882;8.662;2022-10-30T08:57:34;15.60;99.90
21918;DHT22;11123;49.882;8.662;2022-10-30T09:00:03;15.70;99.90
21918;DHT22;11123;49.882;8.662;2022-10-30T09:02:51;15.80;99.90
21918;DHT22;11123;49.882;8.662;2022-10-30T09:05:38;15.80;99.90
21918;DHT22;11123;49.882;8.662;2022-10-30T09:08:10;15.90;99.90
21918;DHT22;11123;49.882;8.662;2022-10-30T09:11:02;16.00;99.90
21918;DHT22;11123;49.882;8.662;2022-10-30T09:13:31;16.10;99.90
21918;DHT22;11123;49.882;8.662;2022-10-30T09:16:02;16.20;99.90
21918;DHT22;11123;49.882;8.662;2022-10-30T09:18:34;16.30;99.90
21918;DHT22;11123;49.882;8.662;2022-10-30T09:21:04;16.40;99.90
21918;DHT22;11123;49.882;8.662;2022-10-30T09:23:43;16.50;99.90
21918;DHT22;11123;49.882;8.662;2022-10-30T09:26:30;16.60;99.90
21918;DHT22;11123;49.882;8.662;2022-10-30T09:29:06;16.70;99.90
21918;DHT22;11123;49.882;8.662;2022-10-30T09:31:53;16.80;99.90
21918;DHT22;11123;49.882;8.662;2022-10-30T09:34:24;16.80;99.90
21918;DHT22;11123;49.882;8.662;2022-10-30T09:37:08;16.90;99.90
21918;DHT22;11123;49.882;8.662;2022-10-30T09:39:39;17.00;99.90
21918;DHT22;11123;49.882;8.662;2022-10-30T09:42:24;17.00;99.90
21918;DHT22;11123;49.882;8.662;2022-10-30T09:48:23;17.20;99.90
21918;DHT22;11123;49.882;8.662;2022-10-30T09:51:36;17.30;99.90
21918;DHT22;11123;49.882;8.662;2022-10-30T09:54:14;17.40;99.90
21918;DHT22;11123;49.882;8.662;2022-10-30T09:56:53;17.50;99.90
21918;DHT22;11123;49.882;8.662;2022-10-30T09:59:38;17.70;99.90
21918;DHT22;11123;49.882;8.662;2022-10-30T10:02:22;17.80;99.90
21918;DHT22;11123;49.882;8.662;2022-10-30T10:04:55;17.90;99.90
21918;DHT22;11123;49.882;8.662;2022-10-30T10:08:03;18.00;99.90
21918;DHT22;11123;49.882;8.662;2022-10-30T10:11:00;18.10;99.90
21918;DHT22;11123;49.882;8.662;2022-10-30T10:13:34;18.20;99.90
21918;DHT22;11123;49.882;8.662;2022-10-30T10:16:11;18.30;99.90
21918;DHT22;11123;49.882;8.662;2022-10-30T10:18:44;18.40;99.90
21918;DHT22;11123;49.882;8.662;2022-10-30T10:21:22;18.50;99.90
21918;DHT22;11123;49.882;8.662;2022-10-30T10:23:53;18.60;99.90
21918;DHT22;11123;49.882;8.662;2022-10-30T10:26:39;18.70;99.90
21918;DHT22;11123;49.882;8.662;2022-10-30T10:29:31;18.80;99.90
21918;DHT22;11123;49.882;8.662;2022-10-30T10:35:28;19.10;99.90
21918;DHT22;11123;49.882;8.662;2022-10-30T10:38:10;19.20;99.90
21918;DHT22;11123;49.882;8.662;2022-10-30T10:40:50;19.40;99.90
21918;DHT22;11123;49.882;8.662;2022-10-30T10:43:30;19.60;99.90
21918;DHT22;11123;49.882;8.662;2022-10-30T10:46:23;19.70;99.90
21918;DHT22;11123;49.882;8.662;2022-10-30T10:49:10;19.80;99.90
21918;DHT22;11123;49.882;8.662;2022-10-30T10:51:46;19.90;92.20
21918;DHT22;11123;49.882;8.662;2022-10-30T10:54:20;20.00;67.70
21918;DHT22;11123;49.882;8.662;2022-10-30T10:56:50;20.00;59.90
21918;DHT22;11123;49.882;8.662;2022-10-30T10:59:22;20.00;58.00
21918;DHT22;11123;49.882;8.662;2022-10-30T11:01:59;20.20;48.70
21918;DHT22;11123;49.882;8.662;2022-10-30T11:04:33;20.30;32.60
21918;DHT22;11123;49.882;8.662;2022-10-30T11:07:20;20.40;29.30
21918;DHT22;11123;49.882;8.662;2022-10-30T11:09:51;20.40;20.10
21918;DHT22;11123;49.882;8.662;2022-10-30T11:12:23;21.50;7.00
21918;DHT22;11123;49.882;8.662;2022-10-30T11:15:00;23.40;1.00
21918;DHT22;11123;49.882;8.662;2022-10-30T11:17:38;25.00;1.00
21918;DHT22;11123;49.882;8.662;2022-10-30T11:20:14;25.40;1.00
21918;DHT22;11123;49.882;8.662;2022-10-30T11:22:48;26.10;1.00
21918;DHT22;11123;49.882;8.662;2022-10-30T11:25:19;26.50;1.00
21918;DHT22;11123;49.882;8.662;2022-10-30T11:27:58;27.00;1.00
21918;DHT22;11123;49.882;8.662;2022-10-30T11:30:27;28.40;1.00
21918;DHT22;11123;49.882;8.662;2022-10-30T11:32:58;29.60;1.00
21918;DHT22;11123;49.882;8.662;2022-10-30T11:35:26;30.00;99.90
21918;DHT22;11123;49.882;8.662;2022-10-30T11:38:11;30.20;99.90
21918;DHT22;11123;49.882;8.662;2022-10-30T11:40:45;29.20;99.90
21918;DHT22;11123;49.882;8.662;2022-10-30T11:43:17;28.60;99.90
21918;DHT22;11123;49.882;8.662;2022-10-30T11:45:48;27.80;99.90
21918;DHT22;11123;49.882;8.662;2022-10-30T11:48:22;27.20;99.90
21918;DHT22;11123;49.882;8.662;2022-10-30T11:50:57;26.80;99.90
21918;DHT22;11123;49.882;8.662;2022-10-30T11:53:28;26.10;99.90
21918;DHT22;11123;49.882;8.662;2022-10-30T11:55:58;25.30;97.50
21918;DHT22;11123;49.882;8.662;2022-10-30T11:58:31;24.70;1.00
21918;DHT22;11123;49.882;8.662;2022-10-30T12:01:02;24.30;1.00
21918;DHT22;11123;49.882;8.662;2022-10-30T12:03:36;23.90;1.00
21918;DHT22;11123;49.882;8.662;2022-10-30T12:06:16;23.60;1.00
21918;DHT22;11123;49.882;8.662;2022-10-30T12:09:00;24.10;1.00
21918;DHT22;11123;49.882;8.662;2022-10-30T12:11:31;25.20;1.00
21918;DHT22;11123;49.882;8.662;2022-10-30T12:14:03;26.00;1.00
21918;DHT22;11123;49.882;8.662;2022-10-30T12:16:34;26.00;99.90
21918;DHT22;11123;49.882;8.662;2022-10-30T12:19:06;25.70;99.90
21918;DHT22;11123;49.882;8.662;2022-10-30T12:21:44;25.20;1.00
21918;DHT22;11123;49.882;8.662;2022-10-30T12:24:18;25.00;1.00
21918;DHT22;11123;49.882;8.662;2022-10-30T12:26:51;24.80;1.00
21918;DHT22;11123;49.882;8.662;2022-10-30T12:29:24;24.70;1.00
21918;DHT22;11123;49.882;8.662;2022-10-30T12:32:17;24.50;1.00
21918;DHT22;11123;49.882;8.662;2022-10-30T12:34:52;24.10;1.00
21918;DHT22;11123;49.882;8.662;2022-10-30T12:37:28;23.90;1.00
21918;DHT22;11123;49.882;8.662;2022-10-30T12:40:02;23.90;1.00
21918;DHT22;11123;49.882;8.662;2022-10-30T12:42:36;23.60;1.00
21918;DHT22;11123;49.882;8.662;2022-10-30T12:45:12;23.20;1.00
21918;DHT22;11123;49.882;8.662;2022-10-30T12:47:47;23.30;1.00
21918;DHT22;11123;49.882;8.662;2022-10-30T12:50:23;23.40;1.00
21918;DHT22;11123;49.882;8.662;2022-10-30T12:52:58;23.70;1.00
21918;DHT22;11123;49.882;8.662;2022-10-30T12:55:32;24.10;1.00
21918;DHT22;11123;49.882;8.662;2022-10-30T12:58:07;24.50;1.00
21918;DHT22;11123;49.882;8.662;2022-10-30T13:00:44;24.70;1.00
21918;DHT22;11123;49.882;8.662;2022-10-30T13:03:25;25.00;1.00
21918;DHT22;11123;49.882;8.662;2022-10-30T13:06:00;24.90;1.00
21918;DHT22;11123;49.882;8.662;2022-10-30T13:08:32;25.20;99.90
21918;DHT22;11123;49.882;8.662;2022-10-30T13:11:08;24.90;99.90
21918;DHT22;11123;49.882;8.662;2022-10-30T13:13:42;24.40;1.00
21918;DHT22;11123;49.882;8.662;2022-10-30T13:16:17;24.00;1.00
21918;DHT22;11123;49.882;8.662;2022-10-30T13:18:46;23.60;1.00
21918;DHT22;11123;49.882;8.662;2022-10-30T13:21:20;23.10;1.00
21918;DHT22;11123;49.882;8.662;2022-10-30T13:23:59;22.80;1.00
21918;DHT22;11123;49.882;8.662;2022-10-30T13:26:33;22.60;1.00
21918;DHT22;11123;49.882;8.662;2022-10-30T13:29:14;22.70;1.00
21918;DHT22;11123;49.882;8.662;2022-10-30T13:32:02;22.60;1.00
21918;DHT22;11123;49.882;8.662;2022-10-30T13:34:39;22.60;1.00
21918;DHT22;11123;49.882;8.662;2022-10-30T13:37:15;22.50;1.00
21918;DHT22;11123;49.882;8.662;2022-10-30T13:39:56;22.50;1.00
21918;DHT22;11123;49.882;8.662;2022-10-30T13:42:47;22.40;1.00
21918;DHT22;11123;49.882;8.662;2022-10-30T13:45:40;22.30;1.00
21918;DHT22;11123;49.882;8.662;2022-10-30T13:48:20;22.40;1.00
21918;DHT22;11123;49.882;8.662;2022-10-30T13:51:16;22.40;1.00
21918;DHT22;11123;49.882;8.662;2022-10-30T13:53:57;22.30;1.00
21918;DHT22;11123;49.882;8.662;2022-10-30T13:56:33;22.30;1.00
21918;DHT22;11123;49.882;8.662;2022-10-30T13:59:16;22.20;1.00
21918;DHT22;11123;49.882;8.662;2022-10-30T14:01:56;22.30;1.00
21918;DHT22;11123;49.882;8.662;2022-10-30T14:04:32;22.20;1.00
21918;DHT22;11123;49.882;8.662;2022-10-30T14:07:17;22.10;1.00
21918;DHT22;11123;49.882;8.662;2022-10-30T14:09:57;22.10;1.00
21918;DHT22;11123;49.882;8.662;2022-10-30T14:12:45;22.00;1.00
21918;DHT22;11123;49.882;8.662;2022-10-30T14:15:26;22.00;1.00
21918;DHT22;11123;49.882;8.662;2022-10-30T14:18:24;21.90;1.00
21918;DHT22;11123;49.882;8.662;2022-10-30T14:20:55;21.80;1.00
21918;DHT22;11123;49.882;8.662;2022-10-30T14:23:29;21.80;1.00
21918;DHT22;11123;49.882;8.662;2022-10-30T14:26:19;21.80;1.00
21918;DHT22;11123;49.882;8.662;2022-10-30T14:28:50;21.70;1.00
21918;DHT22;11123;49.882;8.662;2022-10-30T14:31:32;21.70;1.00
21918;DHT22;11123;49.882;8.662;2022-10-30T14:34:02;21.60;1.00
21918;DHT22;11123;49.882;8.662;2022-10-30T14:36:49;21.70;1.00
21918;DHT22;11123;49.882;8.662;2022-10-30T14:39:27;21.70;1.00
21918;DHT22;11123;49.882;8.662;2022-10-30T14:42:07;21.70;1.00
21918;DHT22;11123;49.882;8.662;2022-10-30T14:45:14;21.60;1.00
21918;DHT22;11123;49.882;8.662;2022-10-30T14:47:56;21.60;1.00
21918;DHT22;11123;49.882;8.662;2022-10-30T14:50:41;21.70;1.00
21918;DHT22;11123;49.882;8.662;2022-10-30T14:53:28;21.70;1.00
21918;DHT22;11123;49.882;8.662;2022-10-30T14:56:04;21.70;1.00
21918;DHT22;11123;49.882;8.662;2022-10-30T14:58:38;21.60;1.00
21918;DHT22;11123;49.882;8.662;2022-10-30T15:01:32;21.50;1.00
21918;DHT22;11123;49.882;8.662;2022-10-30T15:04:21;21.40;1.00
21918;DHT22;11123;49.882;8.662;2022-10-30T15:07:01;21.40;1.00
21918;DHT22;11123;49.882;8.662;2022-10-30T15:09:43;21.40;1.00
21918;DHT22;11123;49.882;8.662;2022-10-30T15:12:48;21.40;1.00
21918;DHT22;11123;49.882;8.662;2022-10-30T15:15:27;21.40;1.00
21918;DHT22;11123;49.882;8.662;2022-10-30T15:18:00;21.40;1.00
21918;DHT22;11123;49.882;8.662;2022-10-30T15:20:32;21.30;1.00
21918;DHT22;11123;49.882;8.662;2022-10-30T15:23:11;21.20;1.00
21918;DHT22;11123;49.882;8.662;2022-10-30T15:26:04;21.10;1.00
21918;DHT22;11123;49.882;8.662;2022-10-30T15:28:49;21.00;1.00
21918;DHT22;11123;49.882;8.662;2022-10-30T15:31:41;20.80;1.00
21918;DHT22;11123;49.882;8.662;2022-10-30T15:34:37;20.70;1.00
21918;DHT22;11123;49.882;8.662;2022-10-30T15:37:15;20.70;1.00
21918;DHT22;11123;49.882;8.662;2022-10-30T15:39:44;20.60;1.00
21918;DHT22;11123;49.882;8.662;2022-10-30T15:42:13;20.60;1.00
21918;DHT22;11123;49.882;8.662;2022-10-30T15:44:48;20.50;1.00
21918;DHT22;11123;49.882;8.662;2022-10-30T15:47:19;20.40;1.00
21918;DHT22;11123;49.882;8.662;2022-10-30T15:49:49;20.40;1.00
21918;DHT22;11123;49.882;8.662;2022-10-30T15:52:22;20.30;1.00
21918;DHT22;11123;49.882;8.662;2022-10-30T15:54:54;20.30;1.00
21918;DHT22;11123;49.882;8.662;2022-10-30T15:57:26;20.20;1.00
21918;DHT22;11123;49.882;8.662;2022-10-30T16:00:20;20.10;1.00
21918;DHT22;11123;49.882;8.662;2022-10-30T16:02:59;20.10;1.00
21918;DHT22;11123;49.882;8.662;2022-10-30T16:06:12;19.90;1.00
21918;DHT22;11123;49.882;8.662;2022-10-30T16:08:42;19.80;1.00
21918;DHT22;11123;49.882;8.662;2022-10-30T16:11:20;19.70;1.00
21918;DHT22;11123;49.882;8.662;2022-10-30T16:14:05;19.70;1.00
21918;DHT22;11123;49.882;8.662;2022-10-30T16:16:34;19.60;1.00
21918;DHT22;11123;49.882;8.662;2022-10-30T16:19:18;19.60;1.00
21918;DHT22;11123;49.882;8.662;2022-10-30T16:21:56;19.50;1.00
21918;DHT22;11123;49.882;8.662;2022-10-30T16:24:31;19.40;1.00
21918;DHT22;11123;49.882;8.662;2022-10-30T16:27:14;19.30;1.00
21918;DHT22;11123;49.882;8.662;2022-10-30T16:30:01;19.10;1.00
21918;DHT22;11123;49.882;8.662;2022-10-30T16:32:54;19.00;6.10
21918;DHT22;11123;49.882;8.662;2022-10-30T16:35:40;18.80;19.40
21918;DHT22;11123;49.882;8.662;2022-10-30T16:38:30;18.50;28.60
21918;DHT22;11123;49.882;8.662;2022-10-30T16:41:20;18.30;43.70
21918;DHT22;11123;49.882;8.662;2022-10-30T16:44:18;18.20;67.30
21918;DHT22;11123;49.882;8.662;2022-10-30T16:47:18;18.00;90.00